Time;durP1;ratioP1;P1;durP2;ratioP2;P2;SDS_P1;SDS_P2;PMS_P1;PMS_P2;Temp;Humidity;BMP_temperature;BMP_pressure;BME280_temperature;BME280_humidity;BME280_pressure;Samples;Min_cycle;Max_cycle;Signal;HPM_P1;HPM_P2
2022/05/30 00:00:30;;;;;;;6.55;3.55;;;;;;;8.95;87.72;97583.16;4123547;28;20666;-89
2022/05/30 00:02:34;;;;;;;4.25;3.60;;;;;;;8.91;87.18;97580.88;4107671;28;20209;-90
2022/05/30 00:04:37;;;;;;;6.00;4.10;;;;;;;8.86;87.24;97576.94;4109162;28;20209;-90
2022/05/30 00:06:42;;;;;;;6.47;3.97;;;;;;;8.89;86.85;97581.94;4086365;28;20670;-90
2022/05/30 00:08:45;;;;;;;9.02;4.50;;;;;;;8.87;87.72;97583.78;4090281;28;20637;-91
2022/05/30 00:10:48;;;;;;;5.03;3.70;;;;;;;8.89;88.19;97580.16;4122716;28;20700;-90
2022/05/30 00:12:51;;;;;;;5.57;4.15;;;;;;;8.91;88.14;97580.88;4109733;28;20209;-90
2022/05/30 00:14:55;;;;;;;5.83;3.83;;;;;;;8.90;89.18;97576.63;4106417;28;21019;-90
2022/05/30 00:16:58;;;;;;;5.30;3.58;;;;;;;8.82;86.43;97580.69;4099912;28;21278;-91
2022/05/30 00:19:01;;;;;;;6.20;4.20;;;;;;;8.71;86.93;97578.81;4125931;28;20212;-91
2022/05/30 00:21:05;;;;;;;4.10;3.70;;;;;;;8.65;87.25;97573.22;4089442;28;20684;-91
2022/05/30 00:23:09;;;;;;;5.60;3.90;;;;;;;8.58;88.08;97572.78;4123681;28;20645;-91
2022/05/30 00:25:13;;;;;;;5.97;3.93;;;;;;;8.57;88.37;97578.94;4091502;28;20415;-91
2022/05/30 00:27:18;;;;;;;5.25;4.50;;;;;;;8.59;86.45;97574.47;4108889;28;20667;-91
2022/05/30 00:29:21;;;;;;;5.50;4.32;;;;;;;8.52;87.87;97569.78;4126552;28;20200;-90
2022/05/30 00:31:24;;;;;;;5.03;4.00;;;;;;;8.51;88.39;97570.75;4110914;28;20308;-90
2022/05/30 00:33:27;;;;;;;5.63;4.00;;;;;;;8.52;88.94;97570.66;4110959;28;20687;-91
2022/05/30 00:35:31;;;;;;;7.03;4.60;;;;;;;8.52;88.72;97572.41;4107742;28;20297;-90
2022/05/30 00:37:34;;;;;;;5.78;4.35;;;;;;;8.54;88.90;97560.16;4096117;28;20646;-91
2022/05/30 00:39:38;;;;;;;5.30;4.80;;;;;;;8.54;88.79;97563.56;4092531;28;20257;-91
2022/05/30 00:41:41;;;;;;;6.38;4.43;;;;;;;8.56;89.00;97558.25;4096216;28;20292;-90
2022/05/30 00:43:45;;;;;;;4.97;4.30;;;;;;;8.51;87.94;97560.34;4110686;28;20637;-90
2022/05/30 00:45:55;;;;;;;5.07;3.92;;;;;;;8.45;88.16;97553.81;4103661;28;20232;-89
2022/05/30 00:47:58;;;;;;;5.93;3.60;;;;;;;8.38;87.75;97548.31;4107888;28;20228;-89
2022/05/30 00:50:01;;;;;;;5.47;4.25;;;;;;;8.34;86.46;97554.63;4104109;28;20304;-90
2022/05/30 00:52:07;;;;;;;4.15;3.65;;;;;;;8.29;87.25;97554.13;4109646;28;20220;-89
2022/05/30 00:54:15;;;;;;;4.43;4.03;;;;;;;8.27;86.78;97546.44;4109592;28;20276;-91
2022/05/30 00:56:22;;;;;;;5.00;3.90;;;;;;;8.28;87.19;97547.25;4109693;28;20201;-91
2022/05/30 00:58:27;;;;;;;7.30;4.30;;;;;;;8.24;87.42;97544.06;4122811;28;20649;-90
2022/05/30 01:00:30;;;;;;;6.47;4.05;;;;;;;8.21;88.11;97546.84;4125606;28;20347;-90
2022/05/30 01:02:36;;;;;;;6.25;3.90;;;;;;;8.25;88.84;97544.88;4109787;28;20292;-90
2022/05/30 01:07:00;;;;;;;4.90;4.00;;;;;;;8.31;88.81;97542.69;4088142;28;20707;-91
2022/05/30 01:09:06;;;;;;;7.00;4.37;;;;;;;8.31;88.34;97541.84;4111922;28;20644;-90
2022/05/30 01:11:10;;;;;;;4.63;4.05;;;;;;;8.27;88.91;97538.66;4120025;28;20623;-90
2022/05/30 01:13:15;;;;;;;4.97;4.32;;;;;;;8.25;89.26;97539.69;4112292;28;20204;-90
2022/05/30 01:15:19;;;;;;;5.88;4.45;;;;;;;8.23;88.39;97531.16;4109724;28;20298;-91
2022/05/30 01:17:23;;;;;;;6.78;3.83;;;;;;;8.24;87.76;97536.25;4108905;28;20288;-90
2022/05/30 01:19:43;;;;;;;6.60;4.40;;;;;;;8.21;87.92;97527.81;4105116;28;20295;-91
2022/05/30 01:22:02;;;;;;;6.60;4.22;;;;;;;8.19;88.21;97527.91;4108725;28;20212;-91
2022/05/30 01:24:15;;;;;;;4.72;4.05;;;;;;;8.16;88.24;97524.72;4108083;28;20257;-90
2022/05/30 01:26:51;;;;;;;4.93;4.10;;;;;;;8.13;87.36;97528.38;4090364;28;20221;-91
2022/05/30 01:28:58;;;;;;;4.60;4.20;;;;;;;8.12;87.94;97528.47;4110669;28;20220;-90
2022/05/30 01:31:01;;;;;;;6.40;3.92;;;;;;;8.10;88.95;97528.53;4111627;28;20209;-91
2022/05/30 01:33:10;;;;;;;4.63;3.97;;;;;;;8.09;89.38;97523.44;4106546;28;20714;-90
2022/05/30 01:35:13;;;;;;;6.07;4.10;;;;;;;8.10;87.81;97522.50;4095069;28;20692;-90
2022/05/30 01:37:19;;;;;;;5.82;4.50;;;;;;;8.04;88.50;97518.56;4122237;28;20211;-90
2022/05/30 01:39:22;;;;;;;7.05;3.95;;;;;;;8.04;88.92;97512.53;4110333;28;20212;-91
2022/05/30 01:41:28;;;;;;;5.75;4.00;;;;;;;8.06;88.32;97510.69;4111144;28;20233;-91
2022/05/30 01:43:31;;;;;;;5.50;3.63;;;;;;;8.07;88.99;97510.56;4103167;28;20593;-91
2022/05/30 01:45:41;;;;;;;4.05;3.50;;;;;;;8.03;87.19;97506.50;4106286;28;20196;-90
2022/05/30 01:47:44;;;;;;;4.68;3.35;;;;;;;7.97;86.38;97501.72;4108979;28;20209;-91
2022/05/30 01:49:48;;;;;;;4.88;3.38;;;;;;;7.91;87.19;97505.66;4107166;28;20241;-91
2022/05/30 01:51:55;;;;;;;4.88;3.40;;;;;;;7.84;86.41;97500.06;4109600;28;20286;-90
2022/05/30 01:54:00;;;;;;;4.95;4.00;;;;;;;7.81;86.68;97494.25;4108127;28;20288;-91
2022/05/30 01:56:07;;;;;;;4.38;3.47;;;;;;;7.80;88.15;97488.22;4110729;28;20308;-90
2022/05/30 01:58:10;;;;;;;6.15;3.90;;;;;;;7.80;88.23;97489.97;4109336;28;20575;-90
2022/05/30 02:00:33;;;;;;;4.80;3.70;;;;;;;7.83;87.15;97488.00;4126961;28;20231;-90
2022/05/30 02:02:38;;;;;;;5.82;4.25;;;;;;;7.81;88.44;97484.69;4109550;28;20212;-90
2022/05/30 02:04:41;;;;;;;4.40;3.80;;;;;;;7.86;88.41;97486.97;4110050;28;20213;-91
2022/05/30 02:06:45;;;;;;;7.57;3.85;;;;;;;7.85;88.11;97482.72;4106838;28;20228;-91
2022/05/30 02:08:49;;;;;;;4.40;3.92;;;;;;;7.81;86.90;97483.88;4090470;28;20197;-90
2022/05/30 02:10:54;;;;;;;5.30;4.28;;;;;;;7.78;88.07;97484.91;4109587;28;20662;-91
2022/05/30 02:12:57;;;;;;;5.40;3.92;;;;;;;7.78;87.60;97484.06;4106295;28;20673;-90
2022/05/30 02:15:26;;;;;;;4.80;4.10;;;;;;;7.78;88.62;97478.88;4123263;28;20219;-91
2022/05/30 02:17:32;;;;;;;5.72;4.20;;;;;;;7.78;88.70;97474.50;4108877;28;20217;-91
2022/05/30 02:19:42;;;;;;;4.75;4.25;;;;;;;7.77;88.56;97477.22;4109123;28;20214;-90
2022/05/30 02:21:46;;;;;;;4.95;3.80;;;;;;;7.74;88.39;97477.41;4103000;28;20721;-90
2022/05/30 02:23:49;;;;;;;8.63;4.00;;;;;;;7.72;88.49;97477.53;4109007;28;20255;-90
2022/05/30 02:25:52;;;;;;;6.25;4.10;;;;;;;7.72;87.47;97468.91;4110719;28;20213;-90
2022/05/30 02:27:55;;;;;;;6.40;4.57;;;;;;;7.69;88.31;97467.34;4108645;28;20300;-91
2022/05/30 02:29:58;;;;;;;4.63;3.78;;;;;;;7.62;87.74;97468.72;4111797;28;20212;-90
2022/05/30 02:32:03;;;;;;;5.28;3.88;;;;;;;7.62;87.98;97466.13;4123393;28;20237;-91
2022/05/30 02:36:40;;;;;;;4.38;3.90;;;;;;;7.61;88.20;97464.44;4106680;28;20227;-90
2022/05/30 02:38:45;;;;;;;5.10;3.90;;;;;;;7.61;87.31;97474.00;4114399;28;20219;-91
2022/05/30 02:41:07;;;;;;;4.35;3.15;;;;;;;7.57;87.53;97470.75;4111239;28;20289;-91
2022/05/30 02:43:30;;;;;;;4.18;3.78;;;;;;;7.59;87.31;97479.28;4123343;28;20219;-91
2022/05/30 02:45:34;;;;;;;4.85;4.35;;;;;;;7.59;88.82;97474.09;4096714;28;20214;-91
2022/05/30 02:47:37;;;;;;;6.05;3.60;;;;;;;7.60;88.05;97470.56;4105848;28;20735;-91
2022/05/30 02:49:43;;;;;;;4.10;3.70;;;;;;;7.60;87.55;97485.28;4106172;28;20299;-91
2022/05/30 02:51:48;;;;;;;4.10;3.70;;;;;;;7.60;87.67;97477.50;4124320;28;20267;-91
2022/05/30 02:53:52;;;;;;;6.85;3.95;;;;;;;7.60;87.35;97482.69;4094972;28;20301;-90
2022/05/30 02:56:08;;;;;;;4.85;3.47;;;;;;;7.54;88.27;97481.34;4124635;28;20219;-90
2022/05/30 02:58:11;;;;;;;5.28;4.10;;;;;;;7.53;88.81;97482.28;4109388;28;20232;-90
2022/05/30 03:00:15;;;;;;;5.40;4.05;;;;;;;7.52;88.44;97490.16;4123878;28;20199;-91
2022/05/30 03:02:18;;;;;;;6.85;3.95;;;;;;;7.51;87.96;97485.91;4109969;28;20271;-91
2022/05/30 03:04:21;;;;;;;4.55;3.60;;;;;;;7.50;87.53;97484.22;4092222;28;20220;-90
2022/05/30 03:06:25;;;;;;;5.60;4.03;;;;;;;7.44;88.13;97494.19;4092816;28;20316;-90
2022/05/30 03:08:29;;;;;;;4.20;3.80;;;;;;;7.41;87.79;97499.56;4105784;28;20678;-91
2022/05/30 03:10:41;;;;;;;3.85;3.50;;;;;;;7.40;88.41;97501.34;4105775;28;21075;-91
2022/05/30 03:12:44;;;;;;;6.70;3.83;;;;;;;7.39;87.72;97491.06;4093114;28;20296;-91
2022/05/30 03:14:49;;;;;;;6.75;4.15;;;;;;;7.38;88.29;97500.63;4108151;28;20212;-91
2022/05/30 03:16:52;;;;;;;4.50;3.90;;;;;;;7.36;88.20;97506.84;4098446;28;20214;-90
2022/05/30 03:18:56;;;;;;;4.72;3.47;;;;;;;7.27;86.70;97508.25;4107337;28;20935;-89
2022/05/30 03:20:59;;;;;;;4.95;3.70;;;;;;;7.24;86.84;97511.03;4124593;28;20215;-91
2022/05/30 03:23:03;;;;;;;3.53;3.20;;;;;;;7.23;86.68;97509.41;4088894;28;20228;-90
2022/05/30 03:25:23;;;;;;;4.43;3.72;;;;;;;7.19;87.55;97518.28;4109892;28;20250;-91
2022/05/30 03:27:28;;;;;;;5.28;3.75;;;;;;;7.20;88.11;97522.56;4097314;28;20209;-90
2022/05/30 03:29:32;;;;;;;4.38;3.67;;;;;;;7.23;88.53;97531.88;4103736;28;20302;-90
2022/05/30 03:31:36;;;;;;;5.45;3.90;;;;;;;7.24;88.07;97528.38;4107890;28;20212;-90
2022/05/30 03:33:43;;;;;;;6.43;4.20;;;;;;;7.24;88.62;97534.38;4089320;28;20227;-90
2022/05/30 03:35:48;;;;;;;4.25;3.53;;;;;;;7.23;88.46;97534.47;4090761;28;20645;-90
2022/05/30 03:38:14;;;;;;;4.05;3.65;;;;;;;7.25;88.40;97535.22;4105448;28;20219;-91
2022/05/30 03:40:42;;;;;;;4.20;3.30;;;;;;;7.29;87.26;97545.31;4092328;28;20677;-90
2022/05/30 03:43:09;;;;;;;4.75;3.97;;;;;;;7.27;87.26;97541.13;4088074;28;20327;-93
2022/05/30 03:45:13;;;;;;;4.50;3.28;;;;;;;7.31;87.71;97547.81;4108762;28;20320;-90
2022/05/30 03:47:18;;;;;;;5.65;3.80;;;;;;;7.32;86.96;97552.03;4120558;28;20208;-89
2022/05/30 03:49:23;;;;;;;4.32;3.88;;;;;;;7.29;87.51;97550.50;4107083;28;20266;-93
2022/05/30 03:51:26;;;;;;;6.43;4.00;;;;;;;7.30;86.75;97549.53;4121923;28;20206;-91
2022/05/30 03:53:30;;;;;;;5.50;3.80;;;;;;;7.33;87.14;97556.31;4105068;28;20638;-90
2022/05/30 03:55:35;;;;;;;4.90;4.00;;;;;;;7.33;86.42;97549.34;4093052;29;20208;-91
2022/05/30 03:57:40;;;;;;;5.43;3.95;;;;;;;7.35;87.19;97552.69;4108630;28;20210;-90
2022/05/30 03:59:44;;;;;;;7.00;3.58;;;;;;;7.39;87.64;97550.72;4109131;28;20219;-90
2022/05/30 04:01:47;;;;;;;5.95;4.35;;;;;;;7.42;88.15;97558.31;4125540;28;20580;-91
2022/05/30 04:03:50;;;;;;;4.15;3.47;;;;;;;7.45;88.93;97552.94;4095726;28;20616;-90
2022/05/30 04:05:53;;;;;;;3.78;3.35;;;;;;;7.46;88.21;97550.22;4094845;28;20210;-90
2022/05/30 04:07:57;;;;;;;5.90;4.25;;;;;;;7.52;88.78;97550.66;4089364;28;20741;-91
2022/05/30 04:10:21;;;;;;;4.80;3.42;;;;;;;7.60;89.32;97557.94;4112499;28;20205;-91
2022/05/30 04:12:52;;;;;;;4.90;3.22;;;;;;;7.67;88.89;97554.03;4095052;28;20697;-91
2022/05/30 04:15:18;;;;;;;4.90;3.90;;;;;;;7.75;88.45;97562.13;4123666;28;20207;-91
2022/05/30 04:17:41;;;;;;;5.10;4.07;;;;;;;7.83;89.13;97559.84;4124061;28;20215;-90
2022/05/30 04:19:45;;;;;;;5.05;3.97;;;;;;;7.85;89.89;97557.97;4108970;28;20585;-91
2022/05/30 04:21:49;;;;;;;4.75;3.83;;;;;;;7.84;88.72;97551.16;4095276;28;20213;-91
2022/05/30 04:24:00;;;;;;;6.32;4.32;;;;;;;7.84;88.12;97564.94;4095567;28;20215;-91
2022/05/30 04:26:04;;;;;;;5.80;4.15;;;;;;;7.87;88.42;97563.94;4109681;28;20729;-92
2022/05/30 04:28:09;;;;;;;4.80;4.30;;;;;;;7.87;88.98;97566.53;4111386;28;20225;-90
2022/05/30 04:30:17;;;;;;;8.40;4.60;;;;;;;7.86;88.97;97568.25;4111659;28;20560;-90
2022/05/30 04:32:24;;;;;;;6.47;4.63;;;;;;;7.89;89.15;97569.84;4093618;28;20236;-91
2022/05/30 04:34:27;;;;;;;4.78;4.35;;;;;;;7.93;88.38;97573.91;4111399;28;20302;-92
2022/05/30 04:36:33;;;;;;;7.43;4.38;;;;;;;7.96;88.00;97566.72;4093197;28;20206;-90
2022/05/30 04:38:36;;;;;;;6.40;4.32;;;;;;;8.00;88.71;97571.63;4105411;28;20213;-91
2022/05/30 04:41:08;;;;;;;4.15;3.75;;;;;;;8.05;88.73;97572.16;4092615;28;20206;-91
2022/05/30 04:43:48;;;;;;;4.32;3.92;;;;;;;8.09;88.51;97573.59;4110318;28;20204;-91
2022/05/30 04:46:12;;;;;;;4.45;4.00;;;;;;;8.14;89.55;97570.75;4106420;28;20214;-90
2022/05/30 04:48:34;;;;;;;4.95;3.92;;;;;;;8.20;88.93;97571.16;4122259;28;20623;-91
2022/05/30 04:50:37;;;;;;;5.20;4.57;;;;;;;8.25;89.56;97558.69;4106754;28;20756;-90
2022/05/30 04:52:41;;;;;;;4.88;4.40;;;;;;;8.31;87.90;97563.47;4094991;28;20236;-90
2022/05/30 04:55:03;;;;;;;5.13;4.63;;;;;;;8.37;88.93;97570.03;4112066;28;20221;-91
2022/05/30 04:57:15;;;;;;;6.55;4.47;;;;;;;8.42;89.16;97576.56;4093006;28;20303;-91
2022/05/30 05:00:05;;;;;;;5.28;4.35;;;;;;;8.49;88.55;97573.47;4127633;28;20208;-90
2022/05/30 05:02:12;;;;;;;5.35;4.20;;;;;;;8.52;88.25;97562.84;4095134;29;20218;-91
2022/05/30 05:04:23;;;;;;;5.03;4.20;;;;;;;8.56;89.17;97564.28;4111601;28;20201;-90
2022/05/30 05:06:26;;;;;;;9.98;4.13;;;;;;;8.64;88.52;97574.16;4096153;28;20241;-90
2022/05/30 05:08:59;;;;;;;4.82;4.13;;;;;;;8.68;88.60;97579.03;4109103;28;20212;-90
2022/05/30 05:11:17;;;;;;;6.82;4.80;;;;;;;8.72;87.96;97579.66;4126678;28;20672;-90
2022/05/30 05:13:54;;;;;;;5.75;4.60;;;;;;;8.80;87.86;97580.78;4113685;28;20233;-91
2022/05/30 05:16:29;;;;;;;6.00;4.33;;;;;;;8.88;89.28;97577.66;4115465;28;20216;-91
2022/05/30 05:18:33;;;;;;;5.13;4.60;;;;;;;8.95;88.63;97583.16;4123247;28;20645;-89
2022/05/30 05:20:37;;;;;;;5.30;4.13;;;;;;;9.02;88.88;97580.94;4112191;28;20790;-88
2022/05/30 05:22:40;;;;;;;4.50;4.10;;;;;;;9.12;87.69;97581.97;4095637;28;20320;-89
2022/05/30 05:24:45;;;;;;;4.88;4.30;;;;;;;9.19;87.85;97586.63;4097787;28;20780;-90
2022/05/30 05:26:50;;;;;;;5.97;4.55;;;;;;;9.28;89.09;97582.56;4110682;28;20713;-91
2022/05/30 05:28:57;;;;;;;5.63;4.43;;;;;;;9.35;87.38;97583.75;4100425;28;20213;-88
2022/05/30 05:31:00;;;;;;;6.20;4.40;;;;;;;9.43;88.57;97590.09;4116854;28;20205;-90
2022/05/30 05:33:05;;;;;;;5.00;4.17;;;;;;;9.55;87.85;97589.19;4110716;28;20211;-91
2022/05/30 05:35:09;;;;;;;7.20;4.43;;;;;;;9.66;87.38;97586.66;4095970;29;20676;-90
2022/05/30 05:37:12;;;;;;;6.30;4.50;;;;;;;9.83;87.73;97599.25;4111208;28;20204;-90
2022/05/30 05:39:23;;;;;;;8.90;4.60;;;;;;;10.04;87.28;97590.72;4095382;28;20735;-90
2022/05/30 05:41:31;;;;;;;4.72;4.07;;;;;;;10.31;86.01;97584.28;4098987;28;20716;-90
2022/05/30 05:43:43;;;;;;;6.13;4.30;;;;;;;10.65;85.57;97592.03;4103138;28;20596;-90
2022/05/30 05:45:47;;;;;;;5.87;4.47;;;;;;;11.00;83.75;97592.75;4125483;28;20628;-90
2022/05/30 05:47:51;;;;;;;6.80;4.80;;;;;;;11.35;82.62;97607.28;4098084;28;20833;-90
2022/05/30 05:49:56;;;;;;;4.73;3.73;;;;;;;11.70;83.24;97603.56;4097304;29;20711;-88
2022/05/30 05:51:59;;;;;;;6.27;3.90;;;;;;;11.99;80.04;97602.03;4123770;28;20635;-90
2022/05/30 05:54:02;;;;;;;4.20;3.80;;;;;;;12.23;79.51;97605.25;4110770;28;20624;-90
2022/05/30 05:56:12;;;;;;;4.67;4.27;;;;;;;12.55;79.41;97605.03;4124752;28;21077;-88
2022/05/30 05:58:19;;;;;;;5.10;4.23;;;;;;;12.89;79.17;97607.34;4095601;28;20776;-91
2022/05/30 06:00:22;;;;;;;4.17;3.43;;;;;;;13.24;77.72;97606.00;4093697;28;20743;-92
2022/05/30 06:02:30;;;;;;;5.10;3.63;;;;;;;13.57;77.55;97617.94;4109276;28;21047;-87
2022/05/30 06:04:34;;;;;;;4.87;3.97;;;;;;;13.84;77.81;97621.56;4096214;29;20629;-88
2022/05/30 06:06:42;;;;;;;7.97;3.83;;;;;;;14.05;77.65;97617.06;4110316;28;20695;-89
2022/05/30 06:09:03;;;;;;;4.37;3.97;;;;;;;14.37;78.16;97621.06;4110600;28;21084;-91
2022/05/30 06:11:26;;;;;;;5.20;4.30;;;;;;;14.65;77.17;97629.72;4096064;28;21201;-91
2022/05/30 06:14:00;;;;;;;5.70;3.57;;;;;;;14.84;73.78;97631.47;4118503;28;20643;-92
2022/05/30 06:16:07;;;;;;;5.23;4.30;;;;;;;14.99;73.68;97632.66;4094502;28;20709;-90
2022/05/30 06:18:21;;;;;;;5.47;3.87;;;;;;;15.12;72.49;97628.75;4107217;28;20731;-93
2022/05/30 06:20:24;;;;;;;5.53;4.70;;;;;;;15.29;71.28;97625.41;4106688;28;20642;-89
2022/05/30 06:22:29;;;;;;;6.00;3.80;;;;;;;15.46;70.76;97629.91;4126035;28;20645;-90
2022/05/30 06:24:34;;;;;;;5.50;4.10;;;;;;;15.60;73.11;97627.59;4087256;28;20657;-89
2022/05/30 06:27:11;;;;;;;5.33;4.00;;;;;;;15.89;72.10;97636.16;4110528;28;20642;-89
2022/05/30 06:29:51;;;;;;;5.10;4.50;;;;;;;16.02;71.68;97637.44;4072271;29;20979;-89
2022/05/30 06:31:55;;;;;;;4.87;3.87;;;;;;;16.23;71.70;97635.38;4102984;28;20641;-89
2022/05/30 06:34:04;;;;;;;4.70;4.23;;;;;;;16.50;71.98;97644.03;4107458;28;21193;-92
2022/05/30 06:36:14;;;;;;;5.43;4.03;;;;;;;16.72;70.22;97636.47;4109935;28;20636;-92
2022/05/30 06:38:20;;;;;;;5.47;4.20;;;;;;;16.84;68.75;97635.25;4112171;28;20633;-92
2022/05/30 06:40:32;;;;;;;4.87;3.87;;;;;;;17.06;69.19;97648.75;4112871;28;20642;-92
2022/05/30 06:42:43;;;;;;;4.83;3.73;;;;;;;17.21;68.11;97646.38;4095216;29;20653;-92
2022/05/30 06:45:06;;;;;;;4.20;3.77;;;;;;;17.40;67.23;97651.44;4113622;28;21225;-92
2022/05/30 06:47:46;;;;;;;4.60;3.60;;;;;;;17.60;67.81;97651.84;4112689;28;20752;-92
2022/05/30 06:50:24;;;;;;;5.20;4.10;;;;;;;17.81;68.41;97654.09;4078263;29;21396;-92
2022/05/30 06:52:29;;;;;;;4.00;3.33;;;;;;;17.92;66.49;97649.34;4107108;28;20639;-92
2022/05/30 06:54:34;;;;;;;5.80;4.20;;;;;;;18.10;67.71;97644.75;4101142;28;20640;-92
2022/05/30 06:58:11;;;;;;;4.33;3.70;;;;;;;18.18;64.94;97644.81;4094004;28;20672;-92
2022/05/30 06:59:25;;;;;;;6.30;3.40;;;;;;;18.38;65.83;97644.34;4103583;28;20650;-89
2022/05/30 07:01:31;;;;;;;4.30;3.43;;;;;;;18.44;64.09;97639.22;4098302;28;20636;-89
2022/05/30 07:03:54;;;;;;;11.93;9.50;;;;;;;18.53;67.57;97648.81;4104962;28;21059;-89
2022/05/30 07:06:25;;;;;;;4.00;3.57;;;;;;;18.74;66.53;97640.41;4103032;28;20673;-89
2022/05/30 07:08:46;;;;;;;5.10;3.57;;;;;;;18.88;64.81;97647.66;4123795;28;21224;-89
2022/05/30 07:11:09;;;;;;;4.83;3.33;;;;;;;18.95;64.30;97646.81;4119722;28;21054;-89
2022/05/30 07:13:13;;;;;;;3.83;3.30;;;;;;;19.05;63.76;97648.34;4109793;28;20652;-88
2022/05/30 07:15:17;;;;;;;5.17;3.57;;;;;;;19.21;67.27;97652.75;4127846;28;21199;-88
2022/05/30 07:17:26;;;;;;;4.07;3.37;;;;;;;19.30;63.74;97651.75;4129487;28;21196;-89
2022/05/30 07:19:29;;;;;;;5.53;3.50;;;;;;;19.42;63.62;97649.44;4108119;28;21013;-88
2022/05/30 07:21:42;;;;;;;4.00;3.60;;;;;;;19.45;63.31;97656.19;4107335;28;21262;-89
2022/05/30 07:24:04;;;;;;;4.97;3.57;;;;;;;19.62;63.89;97650.69;4125467;28;20687;-88
2022/05/30 07:26:29;;;;;;;4.23;3.60;;;;;;;19.79;63.49;97651.44;4125555;28;20675;-89
2022/05/30 07:28:52;;;;;;;6.43;3.23;;;;;;;19.81;62.93;97652.91;4107308;28;20641;-89
2022/05/30 07:31:25;;;;;;;22.73;18.50;;;;;;;19.95;60.61;97660.13;4124343;28;21066;-89
2022/05/30 07:33:51;;;;;;;3.57;3.00;;;;;;;19.88;62.48;97651.25;4112564;28;21290;-89
2022/05/30 07:36:21;;;;;;;4.83;3.20;;;;;;;20.13;63.97;97655.41;4090941;28;20627;-88
2022/05/30 07:38:48;;;;;;;5.03;3.70;;;;;;;20.31;63.18;97650.69;4098430;28;21002;-88
2022/05/30 07:41:26;;;;;;;8.90;3.13;;;;;;;20.41;61.82;97650.25;4129556;28;20637;-89
2022/05/30 07:43:42;;;;;;;5.57;3.47;;;;;;;20.60;63.97;97659.59;4127315;28;21047;-89
2022/05/30 07:46:19;;;;;;;4.50;3.30;;;;;;;20.78;62.37;97650.38;4092219;28;20645;-88
2022/05/30 07:48:38;;;;;;;3.60;2.97;;;;;;;20.92;62.55;97658.34;4113637;28;20643;-89
2022/05/30 07:51:00;;;;;;;4.97;3.27;;;;;;;20.87;61.04;97650.13;4111005;28;20642;-89
2022/05/30 07:53:21;;;;;;;8.50;7.60;;;;;;;21.04;60.18;97658.75;4124243;28;21020;-89
2022/05/30 07:55:42;;;;;;;7.63;3.77;;;;;;;21.14;59.91;97661.97;4110394;28;20762;-89
2022/05/30 07:57:52;;;;;;;5.30;2.90;;;;;;;21.14;60.48;97657.50;4096607;28;20632;-89
2022/05/30 07:59:59;;;;;;;4.60;3.30;;;;;;;21.11;61.60;97652.56;4112922;28;20636;-89
2022/05/30 08:02:03;;;;;;;6.90;3.27;;;;;;;21.19;60.54;97656.97;4111486;28;20634;-89
2022/05/30 08:04:12;;;;;;;4.00;3.40;;;;;;;21.28;62.93;97662.81;4093428;28;20645;-89
2022/05/30 08:06:24;;;;;;;4.57;3.03;;;;;;;21.36;58.57;97660.09;4126837;28;20659;-89
2022/05/30 08:09:01;;;;;;;4.80;3.30;;;;;;;21.40;58.31;97656.06;4137451;28;20635;-88
2022/05/30 08:11:04;;;;;;;4.80;2.93;;;;;;;21.31;57.05;97649.19;4088683;29;20745;-87
2022/05/30 08:13:17;;;;;;;5.10;3.07;;;;;;;21.28;55.16;97654.84;4113579;28;20638;-91
2022/05/30 08:15:31;;;;;;;4.00;2.90;;;;;;;21.32;59.98;97658.00;4116572;28;20623;-90
2022/05/30 08:17:43;;;;;;;5.43;2.93;;;;;;;21.45;60.05;97655.50;4092253;28;20673;-89
2022/05/30 08:19:47;;;;;;;4.37;3.33;;;;;;;21.56;58.18;97647.97;4096292;28;20669;-90
2022/05/30 08:22:02;;;;;;;4.03;3.03;;;;;;;21.56;55.73;97657.75;4103576;28;20703;-89
2022/05/30 08:24:10;;;;;;;6.40;3.07;;;;;;;21.45;55.26;97651.06;4125608;28;20638;-89
2022/05/30 08:26:17;;;;;;;4.40;3.60;;;;;;;21.54;60.60;97644.66;4099183;29;20661;-89
2022/05/30 08:28:47;;;;;;;4.53;2.80;;;;;;;21.63;58.39;97643.56;4100182;28;20688;-89
2022/05/30 08:30:52;;;;;;;4.50;2.77;;;;;;;21.66;54.73;97637.88;4099460;28;20637;-90
2022/05/30 08:33:10;;;;;;;4.10;2.50;;;;;;;21.75;57.34;97642.09;4127353;28;20679;-89
2022/05/30 08:35:47;;;;;;;3.67;2.87;;;;;;;21.87;56.55;97641.41;4120079;28;21034;-89
2022/05/30 08:37:50;;;;;;;3.97;2.70;;;;;;;21.91;59.02;97636.59;4109890;28;20640;-89
2022/05/30 08:42:25;;;;;;;3.63;2.50;;;;;;;21.90;57.31;97634.91;4107735;28;20685;-90
2022/05/30 08:44:47;;;;;;;7.63;2.73;;;;;;;21.94;55.68;97634.38;4119277;28;21274;-89
2022/05/30 08:46:58;;;;;;;3.97;2.73;;;;;;;22.06;55.55;97632.88;4124975;28;20644;-89
2022/05/30 08:49:14;;;;;;;3.83;2.57;;;;;;;22.02;54.71;97636.91;4109462;28;20656;-89
2022/05/30 08:51:42;;;;;;;4.30;2.70;;;;;;;21.92;54.74;97632.91;4095116;28;20728;-89
2022/05/30 08:54:03;;;;;;;5.90;3.10;;;;;;;21.97;54.40;97628.69;4112827;28;20648;-89
2022/05/30 08:56:16;;;;;;;4.73;2.83;;;;;;;22.10;58.39;97633.31;4103322;28;21295;-89
2022/05/30 08:59:23;;;;;;;4.20;2.70;;;;;;;22.12;55.10;97623.34;4091541;28;21205;-89
2022/05/30 09:01:31;;;;;;;3.30;2.63;;;;;;;21.84;52.58;97630.34;4081679;29;21268;-89
2022/05/30 09:06:23;;;;;;;10.03;3.33;;;;;;;21.98;53.36;97624.19;4109783;28;20734;-91
2022/05/30 09:08:33;;;;;;;4.30;2.93;;;;;;;22.00;51.97;97635.47;4096293;28;20678;-91
2022/05/30 09:10:59;;;;;;;3.83;3.00;;;;;;;22.15;53.59;97618.47;4111404;28;20642;-91
2022/05/30 09:13:07;;;;;;;3.90;2.70;;;;;;;22.33;58.12;97622.38;4125338;28;20633;-91
2022/05/30 09:15:24;;;;;;;3.10;2.50;;;;;;;22.46;54.39;97630.50;4126121;28;20667;-91
2022/05/30 09:17:52;;;;;;;3.77;2.60;;;;;;;22.58;52.45;97626.34;4110890;28;20667;-89
2022/05/30 09:19:58;;;;;;;4.80;3.10;;;;;;;22.51;53.00;97622.78;4107341;28;20637;-91
2022/05/30 09:22:03;;;;;;;3.57;2.63;;;;;;;22.75;55.11;97630.38;4104158;28;20639;-89
2022/05/30 09:24:17;;;;;;;4.50;2.83;;;;;;;22.56;51.68;97623.03;4107488;28;20632;-89
2022/05/30 09:26:23;;;;;;;3.70;2.60;;;;;;;22.43;49.32;97622.06;4112225;28;20695;-89
2022/05/30 09:28:33;;;;;;;3.10;2.23;;;;;;;21.77;49.40;97614.34;4122788;28;20745;-90
2022/05/30 09:31:01;;;;;;;4.00;2.53;;;;;;;21.10;51.33;97618.25;4112078;28;20662;-91
2022/05/30 09:33:34;;;;;;;4.60;3.63;;;;;;;20.60;52.98;97614.53;4120886;28;20635;-89
2022/05/30 09:36:13;;;;;;;4.67;2.90;;;;;;;20.16;55.08;97618.00;4128816;28;20719;-89
2022/05/30 09:38:47;;;;;;;7.40;3.20;;;;;;;19.94;56.17;97613.50;4121358;28;20644;-90
2022/05/30 09:41:09;;;;;;;3.43;2.87;;;;;;;19.73;55.16;97615.06;4118498;28;20703;-90
2022/05/30 09:43:26;;;;;;;3.10;2.60;;;;;;;19.52;55.41;97614.81;4108925;28;21286;-90
2022/05/30 09:45:31;;;;;;;4.80;3.07;;;;;;;19.44;58.27;97602.44;4109624;28;20662;-89
2022/05/30 09:48:00;;;;;;;4.70;2.70;;;;;;;19.38;55.62;97605.78;4123851;28;20639;-89
2022/05/30 09:50:20;;;;;;;3.73;2.73;;;;;;;19.66;56.76;97611.44;4112421;28;20990;-89
2022/05/30 09:52:36;;;;;;;4.17;3.33;;;;;;;19.94;60.33;97608.19;4089434;28;21092;-89
2022/05/30 09:54:48;;;;;;;4.00;2.90;;;;;;;20.48;61.83;97616.78;4108251;28;20678;-89
2022/05/30 09:56:54;;;;;;;3.70;2.63;;;;;;;20.92;58.79;97628.38;4102830;28;20640;-89
2022/05/30 09:59:05;;;;;;;4.33;2.50;;;;;;;21.19;57.22;97625.94;4117662;28;20645;-89
2022/05/30 10:01:23;;;;;;;6.00;3.37;;;;;;;21.27;53.73;97625.03;4089768;28;20648;-88
2022/05/30 10:03:32;;;;;;;7.27;2.73;;;;;;;21.36;56.18;97624.75;4102905;28;20648;-90
2022/05/30 10:06:19;;;;;;;3.83;2.90;;;;;;;21.44;54.30;97628.16;4116954;28;20667;-89
2022/05/30 10:08:30;;;;;;;4.63;2.80;;;;;;;21.60;58.20;97635.94;4108269;28;20628;-88
2022/05/30 10:10:49;;;;;;;3.77;2.80;;;;;;;21.57;56.26;97628.34;4111076;28;21200;-89
2022/05/30 10:12:56;;;;;;;3.50;2.23;;;;;;;21.39;57.79;97625.22;4107084;28;20636;-89
2022/05/30 10:15:30;;;;;;;4.10;3.10;;;;;;;21.37;58.11;97627.22;4091565;28;20699;-89
2022/05/30 10:17:39;;;;;;;4.23;2.60;;;;;;;21.44;56.96;97629.97;4109293;28;20672;-89
2022/05/30 10:19:48;;;;;;;5.27;2.60;;;;;;;21.54;56.49;97623.41;4094955;28;20737;-89
2022/05/30 10:30:27;;;;;;;3.80;2.77;;;;;;;21.71;51.16;97627.53;4103022;28;20626;-87
2022/05/30 10:32:59;;;;;;;4.40;2.90;;;;;;;21.63;52.52;97621.50;4123413;28;20630;-87
2022/05/30 10:35:18;;;;;;;3.93;2.33;;;;;;;21.71;53.25;97622.22;4106317;28;20669;-88
2022/05/30 10:37:29;;;;;;;3.93;2.27;;;;;;;21.64;51.46;97621.31;4091693;28;20641;-89
2022/05/30 10:39:56;;;;;;;6.53;3.00;;;;;;;21.82;53.10;97621.75;4092991;28;20641;-91
2022/05/30 10:42:04;;;;;;;4.10;2.50;;;;;;;22.04;53.58;97626.09;4090642;28;20714;-91
2022/05/30 10:44:36;;;;;;;4.10;2.80;;;;;;;22.12;52.27;97628.66;4107921;28;20637;-90